Time;durP1;ratioP1;P1;durP2;ratioP2;P2;SDS_P1;SDS_P2;PMS_P1;PMS_P2;Temp;Humidity;BMP_temperature;BMP_pressure;BME280_temperature;BME280_humidity;BME280_pressure;Samples;Min_cycle;Max_cycle;Signal;HPM_P1;HPM_P2
2023/01/20 00:00:32;;;;;;;;;;;;;;;25.87;55.34;95983.31;617482;229;66852;-72
2023/01/20 00:02:59;;;;;;;;;;;;;;;25.85;53.12;95988.23;617515;229;62971;-72
2023/01/20 00:05:26;;;;;;;;;;;;;;;25.85;52.79;95988.23;617254;229;64479;-72
2023/01/20 00:07:54;;;;;;;;;;;;;;;25.85;54.13;95990.14;617517;229;64481;-73
2023/01/20 00:10:21;;;;;;;;;;;;;;;25.84;54.76;95985.88;617711;229;62725;-72
2023/01/20 00:12:49;;;;;;;;;;;;;;;25.84;54.80;95975.11;617436;229;67039;-70
2023/01/20 00:15:16;;;;;;;;;;;;;;;25.84;54.70;95973.20;617462;229;65129;-69
2023/01/20 00:17:44;;;;;;;;;;;;;;;25.83;54.29;95979.69;617397;229;65200;-69
2023/01/20 00:20:11;;;;;;;;;;;;;;;25.83;54.38;95962.72;617640;229;67077;-69
2023/01/20 00:22:41;;;;;;;;;;;;;;;25.82;54.75;95964.63;617745;229;66797;-69
2023/01/20 00:25:10;;;;;;;;;;;;;;;25.81;53.58;95971.14;617347;229;62779;-69
2023/01/20 00:27:37;;;;;;;;;;;;;;;25.81;53.95;95971.14;617433;228;67129;-67
2023/01/20 00:30:05;;;;;;;;;;;;;;;25.80;54.43;95968.77;617521;229;64576;-67
2023/01/20 00:32:36;;;;;;;;;;;;;;;25.80;55.11;95968.77;617676;229;64820;-69
2023/01/20 00:35:05;;;;;;;;;;;;;;;25.79;54.54;95967.98;617729;229;66946;-69
2023/01/20 00:37:32;;;;;;;;;;;;;;;25.80;55.31;95968.77;617908;229;67006;-69
2023/01/20 00:39:59;;;;;;;;;;;;;;;25.78;54.27;95952.96;618799;229;65067;-69
2023/01/20 00:42:27;;;;;;;;;;;;;;;25.79;55.71;95953.74;618812;229;67254;-69
2023/01/20 00:44:54;;;;;;;;;;;;;;;25.78;54.45;95950.27;618799;229;64949;-72
2023/01/20 00:47:22;;;;;;;;;;;;;;;25.77;54.14;95959.44;618884;229;62970;-72
2023/01/20 00:49:49;;;;;;;;;;;;;;;25.77;55.30;95947.89;618608;229;67174;-72
2023/01/20 00:52:20;;;;;;;;;;;;;;;25.77;54.90;95943.30;618777;229;66929;-72
2023/01/20 00:54:47;;;;;;;;;;;;;;;25.77;54.14;95958.66;618844;229;62959;-72
2023/01/20 00:57:15;;;;;;;;;;;;;;;25.75;54.33;95945.52;618831;229;64702;-71
2023/01/20 00:59:42;;;;;;;;;;;;;;;25.75;55.09;95950.90;618862;229;64641;-69
2023/01/20 01:02:10;;;;;;;;;;;;;;;25.73;53.76;95953.15;618905;229;62936;-69
2023/01/20 01:04:37;;;;;;;;;;;;;;;25.73;53.06;95931.63;618816;229;66734;-69
2023/01/20 01:07:05;;;;;;;;;;;;;;;25.73;54.19;95955.03;618828;229;66739;-69
2023/01/20 01:09:32;;;;;;;;;;;;;;;25.71;53.86;95944.61;618762;229;65283;-69
2023/01/20 01:12:00;;;;;;;;;;;;;;;25.73;53.91;95941.58;618670;229;66950;-69
2023/01/20 01:14:29;;;;;;;;;;;;;;;25.71;54.09;95944.61;618651;229;66923;-69
2023/01/20 01:16:56;;;;;;;;;;;;;;;25.71;55.09;95933.06;618814;229;65034;-69
2023/01/20 01:19:25;;;;;;;;;;;;;;;25.70;54.67;95937.66;618786;229;66859;-69
2023/01/20 01:21:53;;;;;;;;;;;;;;;25.69;54.71;95925.31;618820;229;64611;-69
2023/01/20 01:24:20;;;;;;;;;;;;;;;25.69;55.30;95931.47;618828;229;65172;-72
2023/01/20 01:26:48;;;;;;;;;;;;;;;25.67;55.24;95931.03;618847;229;68053;-71
2023/01/20 01:29:15;;;;;;;;;;;;;;;25.67;54.13;95927.53;618818;229;67303;-72
2023/01/20 01:31:42;;;;;;;;;;;;;;;25.66;53.03;95921.36;618801;229;65046;-72
2023/01/20 01:34:10;;;;;;;;;;;;;;;25.67;54.60;95944.48;618545;229;67145;-71
2023/01/20 01:36:37;;;;;;;;;;;;;;;25.66;54.09;95950.18;618799;229;66954;-72
2023/01/20 01:39:05;;;;;;;;;;;;;;;25.65;54.16;95960.16;617586;229;65091;-72
2023/01/20 01:41:32;;;;;;;;;;;;;;;25.66;54.91;95979.78;617684;229;67215;-72
2023/01/20 01:44:01;;;;;;;;;;;;;;;25.66;55.28;95974.40;617690;229;66922;-72
2023/01/20 01:46:28;;;;;;;;;;;;;;;25.65;54.58;95997.05;617426;229;65046;-72
2023/01/20 01:48:57;;;;;;;;;;;;;;;25.64;55.46;95998.92;617694;229;67664;-72
2023/01/20 01:51:28;;;;;;;;;;;;;;;25.63;54.39;95996.58;617676;229;67140;-72
2023/01/20 01:53:57;;;;;;;;;;;;;;;25.63;54.76;96001.95;617673;228;64785;-72
2023/01/20 01:56:25;;;;;;;;;;;;;;;25.61;54.37;95998.80;617359;229;65260;-72
2023/01/20 01:58:54;;;;;;;;;;;;;;;25.62;53.95;96011.16;617362;229;64751;-72
2023/01/20 02:01:21;;;;;;;;;;;;;;;25.61;53.90;96033.77;617679;229;64860;-72
2023/01/20 02:04:07;;;;;;;;;;;;;;;25.61;54.59;96063.36;617691;229;67012;-72
2023/01/20 02:06:36;;;;;;;;;;;;;;;25.60;54.92;96077.94;617665;229;64859;-71
2023/01/20 02:09:04;;;;;;;;;;;;;;;25.59;54.54;96092.48;617735;229;62914;-72
2023/01/20 02:11:33;;;;;;;;;;;;;;;25.58;53.33;96101.68;617676;229;67054;-72
2023/01/20 02:14:00;;;;;;;;;;;;;;;25.58;53.21;96112.44;617539;229;65001;-72
2023/01/20 02:16:36;;;;;;;;;;;;;;;25.57;55.14;96119.73;617421;229;62724;-72
2023/01/20 02:19:11;;;;;;;;;;;;;;;25.56;53.84;96114.66;617515;228;64926;-71
2023/01/20 02:21:43;;;;;;;;;;;;;;;25.55;54.94;96096.95;617717;229;66814;-71
2023/01/20 02:24:21;;;;;;;;;;;;;;;25.55;54.33;96115.78;617725;229;64864;-71
2023/01/20 02:26:55;;;;;;;;;;;;;;;25.55;54.46;96105.80;617398;228;67134;-71
2023/01/20 02:29:33;;;;;;;;;;;;;;;25.54;54.62;96079.24;617373;228;64743;-72
2023/01/20 02:32:03;;;;;;;;;;;;;;;25.52;55.27;96039.20;617692;229;64881;-71
2023/01/20 02:34:32;;;;;;;;;;;;;;;25.52;54.96;96011.52;617662;229;67072;-72
2023/01/20 02:37:01;;;;;;;;;;;;;;;25.51;55.85;96005.35;617651;229;66651;-72
2023/01/20 02:39:30;;;;;;;;;;;;;;;25.51;54.78;96001.84;617722;228;70670;-72
2023/01/20 02:42:02;;;;;;;;;;;;;;;25.50;53.07;96002.97;617367;228;64882;-71
2023/01/20 02:44:34;;;;;;;;;;;;;;;25.50;54.26;96001.06;617090;229;65021;-72
2023/01/20 02:47:09;;;;;;;;;;;;;;;25.48;55.28;95989.84;617668;229;64863;-72
2023/01/20 02:49:38;;;;;;;;;;;;;;;25.49;55.23;96006.79;617653;229;67111;-71
2023/01/20 02:52:16;;;;;;;;;;;;;;;25.48;53.93;96019.42;617623;228;64808;-71
2023/01/20 02:54:45;;;;;;;;;;;;;;;25.47;54.30;96024.02;617725;228;62691;-72
2023/01/20 02:57:14;;;;;;;;;;;;;;;25.47;54.35;96032.09;617625;229;64721;-71
2023/01/20 02:59:43;;;;;;;;;;;;;;;25.46;53.78;96008.22;617683;229;67463;-71
2023/01/20 03:02:11;;;;;;;;;;;;;;;25.45;53.74;95993.99;617439;229;62730;-71
2023/01/20 03:04:41;;;;;;;;;;;;;;;25.45;54.01;95983.23;617654;228;66699;-70
2023/01/20 03:07:09;;;;;;;;;;;;;;;25.44;55.46;95989.70;617249;228;64649;-70
2023/01/20 03:09:38;;;;;;;;;;;;;;;25.43;54.36;95993.52;617630;229;65105;-72
2023/01/20 03:12:16;;;;;;;;;;;;;;;25.43;55.46;95982.76;617652;229;65389;-71
2023/01/20 03:14:44;;;;;;;;;;;;;;;25.42;53.87;95996.52;613923;229;66823;-70
2023/01/20 03:17:11;;;;;;;;;;;;;;;25.41;53.16;95998.42;617683;229;63607;-71
2023/01/20 03:19:39;;;;;;;;;;;;;;;25.41;54.16;96001.11;617677;229;67137;-70
2023/01/20 03:22:06;;;;;;;;;;;;;;;25.41;54.90;95992.27;617445;229;67086;-70
2023/01/20 03:24:35;;;;;;;;;;;;;;;25.40;54.26;95969.97;617642;229;65067;-70
2023/01/20 03:27:03;;;;;;;;;;;;;;;25.39;53.18;95984.50;617502;229;65000;-70
2023/01/20 03:29:31;;;;;;;;;;;;;;;25.39;53.75;95959.52;617630;229;64916;-70
2023/01/20 03:32:03;;;;;;;;;;;;;;;25.38;55.03;95950.67;617457;229;62988;-71
2023/01/20 03:34:32;;;;;;;;;;;;;;;25.37;53.94;95951.80;617653;229;67050;-71
2023/01/20 03:37:00;;;;;;;;;;;;;;;25.37;53.57;95932.16;617601;229;67230;-71
2023/01/20 03:39:28;;;;;;;;;;;;;;;25.37;55.09;95924.89;618806;229;64869;-71
2023/01/20 03:41:57;;;;;;;;;;;;;;;25.35;54.35;95913.67;618789;229;67064;-71
2023/01/20 03:44:29;;;;;;;;;;;;;;;25.34;54.07;95904.01;618506;229;66885;-71
2023/01/20 03:47:14;;;;;;;;;;;;;;;25.35;54.31;95902.91;618693;228;65179;-71
2023/01/20 03:49:47;;;;;;;;;;;;;;;25.34;54.54;95887.88;618818;229;64860;-70
2023/01/20 03:52:21;;;;;;;;;;;;;;;25.33;54.20;95891.69;618799;229;66686;-71
2023/01/20 03:54:51;;;;;;;;;;;;;;;25.33;54.35;95877.45;618705;228;64850;-72
2023/01/20 03:57:20;;;;;;;;;;;;;;;25.33;54.30;95870.17;618680;228;67234;-72
2023/01/20 03:59:49;;;;;;;;;;;;;;;25.31;53.68;95856.26;618717;229;67170;-69
2023/01/20 04:02:16;;;;;;;;;;;;;;;25.31;54.53;95844.72;618821;229;62932;-72
2023/01/20 04:04:44;;;;;;;;;;;;;;;25.30;54.30;95843.94;618827;229;64886;-72
2023/01/20 04:07:13;;;;;;;;;;;;;;;25.28;54.52;95835.41;618790;229;64830;-72
2023/01/20 04:09:42;;;;;;;;;;;;;;;25.29;54.88;95834.31;618776;229;64891;-72
2023/01/20 04:12:10;;;;;;;;;;;;;;;25.28;54.20;95834.63;618740;229;67169;-73
2023/01/20 04:14:38;;;;;;;;;;;;;;;25.27;53.63;95812.33;618766;229;67088;-72
2023/01/20 04:17:06;;;;;;;;;;;;;;;25.27;55.21;95822.30;618861;229;64880;-72
2023/01/20 04:19:34;;;;;;;;;;;;;;;25.26;54.62;95826.88;618768;229;66830;-72
2023/01/20 04:22:09;;;;;;;;;;;;;;;25.25;54.66;95809.95;618791;229;66866;-73
2023/01/20 04:24:38;;;;;;;;;;;;;;;25.25;53.86;95801.11;618679;228;64876;-72
2023/01/20 04:27:05;;;;;;;;;;;;;;;25.24;54.40;95803.02;617208;229;67311;-72
2023/01/20 04:29:33;;;;;;;;;;;;;;;25.24;53.41;95794.95;618835;229;66680;-72
2023/01/20 04:32:01;;;;;;;;;;;;;;;25.23;53.87;95785.28;618789;229;62801;-72
2023/01/20 04:34:28;;;;;;;;;;;;;;;25.22;54.36;95778.34;618780;229;68006;-72
2023/01/20 04:36:56;;;;;;;;;;;;;;;25.22;53.64;95778.34;618763;229;66846;-72
2023/01/20 04:39:23;;;;;;;;;;;;;;;25.21;53.90;95778.69;618755;229;62673;-69
2023/01/20 04:41:51;;;;;;;;;;;;;;;25.20;54.84;95782.48;618861;229;64891;-69
2023/01/20 04:44:18;;;;;;;;;;;;;;;25.19;53.64;95772.84;618818;229;64816;-69
2023/01/20 04:46:46;;;;;;;;;;;;;;;25.19;54.43;95788.98;618791;229;62820;-69
2023/01/20 04:49:14;;;;;;;;;;;;;;;25.18;54.94;95772.06;618762;229;67093;-68
2023/01/20 04:51:41;;;;;;;;;;;;;;;25.18;54.06;95768.56;618735;229;66946;-68
2023/01/20 04:54:09;;;;;;;;;;;;;;;25.17;53.70;95765.09;618774;229;66232;-68
2023/01/20 04:56:36;;;;;;;;;;;;;;;25.18;56.16;95760.50;618823;229;67194;-68
2023/01/20 04:59:03;;;;;;;;;;;;;;;25.16;53.63;95749.31;618765;229;64992;-68
2023/01/20 05:01:31;;;;;;;;;;;;;;;25.17;53.94;95756.25;618785;229;65061;-68
2023/01/20 05:03:58;;;;;;;;;;;;;;;25.15;54.34;95736.97;618798;229;67007;-68
2023/01/20 05:06:26;;;;;;;;;;;;;;;25.16;54.31;95741.25;618798;229;64212;-68
2023/01/20 05:08:53;;;;;;;;;;;;;;;25.15;53.93;95751.19;618856;229;63055;-68
2023/01/20 05:11:21;;;;;;;;;;;;;;;25.14;53.32;95751.50;618794;229;64372;-68
2023/01/20 05:13:48;;;;;;;;;;;;;;;25.13;53.48;95731.13;618792;229;64842;-68
2023/01/20 05:16:22;;;;;;;;;;;;;;;25.12;53.88;95724.94;618822;229;62945;-68
2023/01/20 05:18:45;;;;;;;;;;;;;;;25.12;53.35;95724.16;618638;228;66876;-68
2023/01/20 05:21:12;;;;;;;;;;;;;;;25.12;54.26;95710.72;618865;229;64541;-68
2023/01/20 05:23:40;;;;;;;;;;;;;;;25.11;53.90;95711.84;618789;229;65075;-68
2023/01/20 05:26:10;;;;;;;;;;;;;;;25.11;54.72;95701.87;618826;229;66864;-68
2023/01/20 05:28:36;;;;;;;;;;;;;;;25.11;54.28;95695.71;618807;229;64841;-68
2023/01/20 05:31:04;;;;;;;;;;;;;;;25.10;54.30;95696.81;618841;229;63897;-68
2023/01/20 05:33:31;;;;;;;;;;;;;;;25.10;54.22;95689.55;618808;229;66887;-69
2023/01/20 05:35:59;;;;;;;;;;;;;;;25.11;53.67;95679.58;618807;229;66806;-68
2023/01/20 05:38:26;;;;;;;;;;;;;;;25.10;54.04;95672.62;618740;229;65031;-69
2023/01/20 05:40:55;;;;;;;;;;;;;;;25.11;53.17;95656.17;618812;229;67385;-69
2023/01/20 05:43:23;;;;;;;;;;;;;;;25.11;53.62;95671.52;618702;228;67123;-69
2023/01/20 05:45:50;;;;;;;;;;;;;;;25.09;54.91;95647.64;618834;229;65115;-69
2023/01/20 05:48:18;;;;;;;;;;;;;;;25.09;54.42;95644.17;618762;227;67176;-69
2023/01/20 05:50:45;;;;;;;;;;;;;;;25.09;54.22;95633.42;618820;229;67249;-69
2023/01/20 05:53:14;;;;;;;;;;;;;;;25.11;55.59;95641.95;618803;229;63018;-69
2023/01/20 05:55:41;;;;;;;;;;;;;;;25.10;55.23;95640.36;618824;229;65028;-69
2023/01/20 05:58:09;;;;;;;;;;;;;;;25.09;54.26;95623.45;618796;229;64910;-69
2023/01/20 06:00:37;;;;;;;;;;;;;;;25.09;55.66;95615.39;618783;229;62852;-69
2023/01/20 06:03:04;;;;;;;;;;;;;;;25.10;54.96;95643.05;618782;229;65130;-69
2023/01/20 06:05:32;;;;;;;;;;;;;;;25.11;56.19;95647.33;618769;229;64913;-69
2023/01/20 06:07:59;;;;;;;;;;;;;;;25.11;55.64;95641.95;618798;229;63915;-69
2023/01/20 06:10:29;;;;;;;;;;;;;;;25.10;54.26;95670.73;618806;229;64767;-69
2023/01/20 06:12:57;;;;;;;;;;;;;;;25.11;54.54;95661.55;618835;229;67755;-69
2023/01/20 06:15:25;;;;;;;;;;;;;;;25.10;56.22;95654.61;618804;229;65157;-68
2023/01/20 06:17:52;;;;;;;;;;;;;;;25.11;55.12;95660.77;618805;229;67169;-68
2023/01/20 06:20:20;;;;;;;;;;;;;;;25.09;55.92;95655.70;618827;229;66856;-69
2023/01/20 06:22:47;;;;;;;;;;;;;;;25.10;56.03;95678.80;618804;229;65062;-69
2023/01/20 06:25:14;;;;;;;;;;;;;;;25.11;56.53;95671.52;618853;229;64941;-69
2023/01/20 06:27:42;;;;;;;;;;;;;;;25.10;54.87;95653.80;618742;229;65090;-68
2023/01/20 06:30:11;;;;;;;;;;;;;;;25.11;55.02;95671.52;618797;229;63846;-69
2023/01/20 06:32:42;;;;;;;;;;;;;;;25.11;55.96;95669.61;618326;228;67258;-68
2023/01/20 06:35:12;;;;;;;;;;;;;;;25.12;55.61;95659.64;618785;229;64850;-68
2023/01/20 06:37:39;;;;;;;;;;;;;;;25.11;55.44;95644.64;618520;229;63643;-69
2023/01/20 06:40:06;;;;;;;;;;;;;;;25.12;54.55;95643.52;617684;229;67167;-68
2023/01/20 06:42:34;;;;;;;;;;;;;;;25.12;56.96;95659.64;617683;229;67030;-68
2023/01/20 06:45:01;;;;;;;;;;;;;;;25.12;57.24;95640.83;617697;229;65107;-68
2023/01/20 06:47:29;;;;;;;;;;;;;;;25.11;55.54;95637.36;617684;229;65416;-72
2023/01/20 06:49:59;;;;;;;;;;;;;;;25.11;57.18;95626.60;617739;229;67090;-72
2023/01/20 06:52:26;;;;;;;;;;;;;;;25.12;55.38;95617.41;617688;229;62922;-71
2023/01/20 06:54:53;;;;;;;;;;;;;;;25.12;57.07;95630.07;617660;229;65034;-72
2023/01/20 06:57:21;;;;;;;;;;;;;;;25.13;57.06;95645.10;616929;229;64864;-70
2023/01/20 06:59:48;;;;;;;;;;;;;;;25.13;55.23;95661.23;617599;229;63847;-74
2023/01/20 07:02:15;;;;;;;;;;;;;;;25.13;55.40;95648.57;622539;227;67182;-72
2023/01/20 07:04:43;;;;;;;;;;;;;;;25.14;52.44;95638.59;624678;227;67051;-73
2023/01/20 07:07:12;;;;;;;;;;;;;;;25.12;53.77;95644.29;624669;227;64848;-71
2023/01/20 07:09:39;;;;;;;;;;;;;;;25.13;53.97;95653.17;624714;227;67131;-72
2023/01/20 07:12:07;;;;;;;;;;;;;;;25.13;54.08;95634.34;624476;227;67017;-72
2023/01/20 07:14:34;;;;;;;;;;;;;;;25.12;53.64;95659.64;624736;227;64827;-72
2023/01/20 07:17:01;;;;;;;;;;;;;;;25.13;53.22;95667.39;624765;227;67178;-72
2023/01/20 07:19:29;;;;;;;;;;;;;;;25.13;53.26;95664.70;624595;227;67130;-72
2023/01/20 07:21:56;;;;;;;;;;;;;;;25.15;54.03;95648.25;624438;227;65079;-74
2023/01/20 07:24:24;;;;;;;;;;;;;;;25.16;53.39;95649.84;624671;227;64831;-73
2023/01/20 07:26:52;;;;;;;;;;;;;;;25.17;53.63;95689.82;624650;227;67177;-72
2023/01/20 07:29:20;;;;;;;;;;;;;;;25.17;54.06;95695.20;624738;227;65042;-73
2023/01/20 07:31:47;;;;;;;;;;;;;;;25.17;52.87;95689.82;624419;227;67035;-74
2023/01/20 07:34:15;;;;;;;;;;;;;;;25.19;53.75;95694.88;624661;227;64630;-74
2023/01/20 07:36:42;;;;;;;;;;;;;;;25.18;53.83;95687.91;624712;227;65164;-68
2023/01/20 07:39:11;;;;;;;;;;;;;;;25.18;54.46;95679.85;625750;226;64883;-69
2023/01/20 07:41:39;;;;;;;;;;;;;;;25.19;55.27;95687.59;625817;226;67391;-69
2023/01/20 07:44:09;;;;;;;;;;;;;;;25.19;54.03;95692.97;625821;226;66221;-69
2023/01/20 07:46:39;;;;;;;;;;;;;;;25.20;54.08;95693.75;623255;225;47060;-69
2023/01/20 07:49:06;;;;;;;;;;;;;;;25.21;54.39;95689.97;625750;226;67906;-68
2023/01/20 07:51:34;;;;;;;;;;;;;;;25.21;54.09;95690.75;625809;226;64893;-69
2023/01/20 07:54:03;;;;;;;;;;;;;;;25.21;55.08;95673.84;625775;226;67017;-67
2023/01/20 07:56:30;;;;;;;;;;;;;;;25.21;54.09;95690.75;625788;226;67158;-68
2023/01/20 07:58:58;;;;;;;;;;;;;;;25.23;54.96;95701.16;625867;226;63790;-68
2023/01/20 08:01:27;;;;;;;;;;;;;;;25.23;54.00;95658.14;625726;226;66846;-68
2023/01/20 08:03:54;;;;;;;;;;;;;;;25.25;54.70;95685.49;623473;226;64935;-69
2023/01/20 08:06:25;;;;;;;;;;;;;;;25.25;54.00;95672.05;616804;228;62940;-69
2023/01/20 08:08:53;;;;;;;;;;;;;;;25.24;54.50;95663.20;624456;226;67514;-68
2023/01/20 08:11:21;;;;;;;;;;;;;;;25.23;54.26;95688.49;618559;229;67069;-68
2023/01/20 08:13:49;;;;;;;;;;;;;;;25.25;53.95;95663.98;618655;229;65106;-70
2023/01/20 08:16:17;;;;;;;;;;;;;;;25.25;54.15;95653.23;618627;229;67468;-70
2023/01/20 08:18:45;;;;;;;;;;;;;;;25.25;53.71;95647.84;618612;229;67005;-69
2023/01/20 08:21:20;;;;;;;;;;;;;;;25.27;49.96;95645.62;618666;226;63023;-69
2023/01/20 08:23:47;;;;;;;;;;;;;;;25.29;54.68;95638.02;618674;229;67110;-67
2023/01/20 08:26:15;;;;;;;;;;;;;;;25.28;57.50;95641.80;618702;229;67038;-67
2023/01/20 08:28:42;;;;;;;;;;;;;;;25.27;55.29;95645.62;618650;229;64999;-67
2023/01/20 08:31:11;;;;;;;;;;;;;;;25.28;56.67;95641.80;618663;229;67200;-68
2023/01/20 08:33:41;;;;;;;;;;;;;;;25.26;55.02;95649.41;618695;229;67067;-67
2023/01/20 08:36:10;;;;;;;;;;;;;;;25.28;54.44;95641.80;618719;229;66380;-73
2023/01/20 08:38:37;;;;;;;;;;;;;;;25.29;55.12;95675.66;617901;229;65096;-73
2023/01/20 08:41:09;;;;;;;;;;;;;;;25.29;56.76;95675.66;617463;229;67016;-70
2023/01/20 08:43:37;;;;;;;;;;;;;;;25.28;51.95;95684.83;617478;229;65234;-72
2023/01/20 08:46:06;;;;;;;;;;;;;;;25.28;52.82;95681.36;616544;229;67005;-71
2023/01/20 08:48:34;;;;;;;;;;;;;;;25.30;53.59;95684.51;616467;229;65652;-71
2023/01/20 08:51:06;;;;;;;;;;;;;;;25.28;53.41;95657.94;617078;229;62988;-71
2023/01/20 08:53:36;;;;;;;;;;;;;;;25.29;54.44;95689.11;617229;228;49797;-72
2023/01/20 08:56:03;;;;;;;;;;;;;;;25.29;54.31;95701.73;617493;229;67333;-71
2023/01/20 08:58:31;;;;;;;;;;;;;;;25.29;54.63;95702.55;617512;229;65039;-74
2023/01/20 09:00:59;;;;;;;;;;;;;;;25.30;55.14;95719.46;617559;229;67226;-72
2023/01/20 09:03:27;;;;;;;;;;;;;;;25.30;54.80;95714.09;617637;229;66915;-72
2023/01/20 09:05:55;;;;;;;;;;;;;;;25.31;53.71;95723.72;617232;227;65156;-68
2023/01/20 09:08:25;;;;;;;;;;;;;;;25.31;54.61;95742.53;617600;229;66886;-74
2023/01/20 09:10:53;;;;;;;;;;;;;;;25.31;53.78;95751.38;618000;227;66826;-71
2023/01/20 09:13:20;;;;;;;;;;;;;;;25.33;54.13;95767.20;617643;229;65085;-71
2023/01/20 09:15:51;;;;;;;;;;;;;;;25.33;53.31;95800.25;617932;227;64185;-73
2023/01/20 09:18:19;;;;;;;;;;;;;;;25.34;54.44;95814.48;617713;227;66873;-74
2023/01/20 09:20:46;;;;;;;;;;;;;;;25.33;54.25;95805.62;617557;229;65084;-73
2023/01/20 09:23:14;;;;;;;;;;;;;;;25.34;55.60;95811.80;620139;227;67196;-73
2023/01/20 09:25:42;;;;;;;;;;;;;;;25.32;50.44;95801.38;622489;227;66821;-72
2023/01/20 09:28:10;;;;;;;;;;;;;;;25.35;55.25;95805.31;622964;227;65012;-73
2023/01/20 09:30:38;;;;;;;;;;;;;;;25.35;55.66;95824.14;618395;227;66813;-73
2023/01/20 09:33:05;;;;;;;;;;;;;;;25.35;56.30;95834.90;620847;227;66801;-73
2023/01/20 09:35:33;;;;;;;;;;;;;;;25.35;55.21;95826.83;620717;227;65083;-73
2023/01/20 09:43:53;;;;;;;;;;;;;;;25.35;54.34;95773.05;610242;228;62840;-73
2023/01/20 09:46:25;;;;;;;;;;;;;;;25.33;54.69;95746.47;625083;227;64881;-71
2023/01/20 09:54:45;;;;;;;;;;;;;;;25.27;54.81;95720.13;625513;227;67098;-70
2023/01/20 09:57:13;;;;;;;;;;;;;;;25.24;53.31;95710.81;625391;227;64475;-69
2023/01/20 09:59:42;;;;;;;;;;;;;;;25.23;52.17;95703.84;625495;227;65155;-74
2023/01/20 10:02:23;;;;;;;;;;;;;;;25.22;55.23;95704.97;625287;227;64905;-67
2023/01/20 10:04:52;;;;;;;;;;;;;;;25.22;54.81;95721.88;619282;227;66597;-74
2023/01/20 10:07:34;;;;;;;;;;;;;;;25.21;53.97;95736.45;614214;229;62616;-71
2023/01/20 10:10:19;;;;;;;;;;;;;;;25.22;50.97;95723.80;618662;229;67070;-71
2023/01/20 10:12:51;;;;;;;;;;;;;;;25.28;48.48;95700.18;618657;229;65429;-73
2023/01/20 10:15:20;;;;;;;;;;;;;;;25.31;48.26;95676.09;618650;228;65404;-73
2023/01/20 10:17:49;;;;;;;;;;;;;;;25.31;52.03;95667.25;618596;227;67204;-74
2023/01/20 10:20:18;;;;;;;;;;;;;;;25.32;54.59;95658.86;618680;229;67083;-69
2023/01/20 10:22:54;;;;;;;;;;;;;;;25.31;55.25;95625.00;618753;229;64920;-71
2023/01/20 10:25:29;;;;;;;;;;;;;;;25.31;56.73;95600.80;620415;226;67168;-71
2023/01/20 10:27:58;;;;;;;;;;;;;;;25.31;55.63;95592.73;622594;227;66679;-74
2023/01/20 10:30:27;;;;;;;;;;;;;;;25.31;55.22;95592.73;622372;227;65025;-73
2023/01/20 10:32:56;;;;;;;;;;;;;;;25.32;55.58;95574.69;619796;227;67011;-73
2023/01/20 10:35:27;;;;;;;;;;;;;;;25.33;56.32;95573.59;625348;226;67089;-74
2023/01/20 10:37:57;;;;;;;;;;;;;;;25.33;56.05;95568.22;624175;226;62960;-74
2023/01/20 10:40:26;;;;;;;;;;;;;;;25.32;55.89;95562.05;622292;228;67533;-73
2023/01/20 10:42:58;;;;;;;;;;;;;;;25.34;55.15;95575.16;621437;228;66840;-74
2023/01/20 10:45:27;;;;;;;;;;;;;;;25.34;54.18;95564.39;622315;228;64965;-72
2023/01/20 10:48:13;;;;;;;;;;;;;;;25.35;54.24;95547.16;621484;228;67113;-76
2023/01/20 10:50:45;;;;;;;;;;;;;;;25.36;54.75;95540.66;622410;228;66861;-72
2023/01/20 10:53:20;;;;;;;;;;;;;;;25.37;54.31;95543.02;622378;228;65109;-72
2023/01/20 10:55:50;;;;;;;;;;;;;;;25.39;54.99;95542.67;622308;228;65016;-72
2023/01/20 10:58:27;;;;;;;;;;;;;;;25.38;54.46;95549.18;622256;228;66848;-72
2023/01/20 11:00:55;;;;;;;;;;;;;;;25.36;54.82;95546.81;622261;228;65074;-72
2023/01/20 11:03:23;;;;;;;;;;;;;;;25.34;55.62;95530.22;622249;228;67253;-67
2023/01/20 11:05:51;;;;;;;;;;;;;;;25.35;55.28;95517.58;622292;228;67002;-67
2023/01/20 11:08:20;;;;;;;;;;;;;;;25.33;55.59;95517.13;622381;228;65166;-67
2023/01/20 11:10:49;;;;;;;;;;;;;;;25.33;55.63;95517.91;620693;228;64967;-67
2023/01/20 11:13:16;;;;;;;;;;;;;;;25.32;55.79;95513.66;620551;228;67898;-67
2023/01/20 11:15:46;;;;;;;;;;;;;;;25.32;56.05;95497.52;622297;228;65089;-67
2023/01/20 11:18:18;;;;;;;;;;;;;;;25.33;55.60;95495.61;622241;228;65001;-67
2023/01/20 11:20:47;;;;;;;;;;;;;;;25.33;55.53;95488.33;622348;228;66994;-68
2023/01/20 11:23:29;;;;;;;;;;;;;;;25.34;56.45;95479.13;622339;228;65115;-67
2023/01/20 11:25:57;;;;;;;;;;;;;;;25.35;54.07;95483.41;622407;228;65072;-67
2023/01/20 11:28:25;;;;;;;;;;;;;;;25.36;55.21;95482.27;621992;228;68096;-67
2023/01/20 11:30:54;;;;;;;;;;;;;;;25.37;56.00;95491.12;622371;228;65063;-68
2023/01/20 11:33:26;;;;;;;;;;;;;;;25.37;55.83;95478.48;622376;228;65003;-67
2023/01/20 11:36:02;;;;;;;;;;;;;;;25.38;55.64;95473.88;616154;228;64881;-67
2023/01/20 11:38:46;;;;;;;;;;;;;;;25.39;56.42;95470.06;624310;226;62970;-68
2023/01/20 11:41:26;;;;;;;;;;;;;;;25.40;57.53;95467.05;625371;227;67771;-68
2023/01/20 11:43:55;;;;;;;;;;;;;;;25.40;56.54;95461.67;625407;227;67025;-68
2023/01/20 11:46:29;;;;;;;;;;;;;;;25.44;55.88;95465.23;625436;227;64854;-68
2023/01/20 11:49:08;;;;;;;;;;;;;;;25.47;54.96;95461.09;625446;227;64614;-65
2023/01/20 11:51:39;;;;;;;;;;;;;;;25.50;55.07;95459.64;625454;227;67051;-67
2023/01/20 11:54:08;;;;;;;;;;;;;;;25.51;54.94;95461.20;625307;227;62902;-68
2023/01/20 11:56:37;;;;;;;;;;;;;;;25.50;55.95;95465.02;625391;227;65155;-67
2023/01/20 11:59:06;;;;;;;;;;;;;;;25.49;55.87;95463.46;625025;227;64927;-67
2023/01/20 12:01:50;;;;;;;;;;;;;;;25.49;55.96;95442.72;624872;227;63047;-67
2023/01/20 12:04:19;;;;;;;;;;;;;;;25.50;56.63;95436.21;625341;227;67144;-68
2023/01/20 12:06:57;;;;;;;;;;;;;;;25.51;56.58;95427.04;625325;227;64599;-64
2023/01/20 12:09:26;;;;;;;;;;;;;;;25.51;56.39;95432.42;625513;227;62940;-68
2023/01/20 12:11:58;;;;;;;;;;;;;;;25.52;55.39;95422.44;624970;227;65072;-70
2023/01/20 12:14:27;;;;;;;;;;;;;;;25.55;55.56;95429.83;625442;227;67036;-66
2023/01/20 12:16:56;;;;;;;;;;;;;;;25.55;56.57;95425.22;625491;227;62994;-62
2023/01/20 12:19:26;;;;;;;;;;;;;;;25.58;48.09;95423.77;625268;227;65720;-67
2023/01/20 12:21:55;;;;;;;;;;;;;;;25.66;49.89;95418.25;625432;227;67080;-66
2023/01/20 12:24:24;;;;;;;;;;;;;;;25.71;51.67;95425.31;625514;227;63222;-65
2023/01/20 12:26:52;;;;;;;;;;;;;;;25.75;53.77;95425.41;625456;227;64867;-66
2023/01/20 12:29:21;;;;;;;;;;;;;;;25.77;55.79;95429.33;625482;227;64769;-68
2023/01/20 12:31:49;;;;;;;;;;;;;;;25.79;54.02;95410.16;625468;227;62908;-67
2023/01/20 12:34:18;;;;;;;;;;;;;;;25.81;56.63;95421.35;625415;227;67235;-68
2023/01/20 12:36:48;;;;;;;;;;;;;;;25.84;55.08;95423.42;625549;227;64363;-68
2023/01/20 12:39:32;;;;;;;;;;;;;;;25.85;49.90;95433.83;622171;226;64903;-67
2023/01/20 12:42:04;;;;;;;;;;;;;;;25.89;51.63;95445.49;622373;228;64873;-68
2023/01/20 12:44:33;;;;;;;;;;;;;;;25.93;50.95;95439.42;622329;228;65132;-68
2023/01/20 12:47:12;;;;;;;;;;;;;;;25.95;52.94;95445.26;622101;228;62897;-68
2023/01/20 12:49:41;;;;;;;;;;;;;;;25.96;50.84;95450.28;622383;228;65719;-68
2023/01/20 12:52:13;;;;;;;;;;;;;;;26.00;49.39;95444.99;621011;228;64894;-68
2023/01/20 12:55:00;;;;;;;;;;;;;;;26.02;49.93;95437.37;622033;228;63627;-68
2023/01/20 12:57:30;;;;;;;;;;;;;;;26.04;50.68;95441.28;622120;228;64890;-68
2023/01/20 13:00:14;;;;;;;;;;;;;;;26.07;50.20;95440.59;621893;228;64908;-68
2023/01/20 13:02:59;;;;;;;;;;;;;;;26.09;51.70;95427.59;622189;228;65429;-67
2023/01/20 13:05:34;;;;;;;;;;;;;;;26.12;50.71;95439.58;622341;228;64573;-68
2023/01/20 13:08:09;;;;;;;;;;;;;;;26.15;50.83;95448.89;622123;228;67150;-68
2023/01/20 13:10:50;;;;;;;;;;;;;;;26.18;48.51;95456.28;622281;228;62914;-68